< < Back
Terminal Aerodrome Forecast


Current Version              Previous Versions:   1  2  3  4  5  6  7  8  9  

Terminal Aerodrome Forecast

226
FTUS42 KGSP 311121
TAFAND
TAF
KAND 311121Z 3112/0112 00000KT P6SM SKC
     FM311600 22007KT P6SM SCT250
     FM311800 24012G21KT P6SM FEW050
     FM010100 25008KT P6SM SCT050
     FM010800 26004KT P6SM SCT110=

Latest METAR

506
SAUS70 KWBC 311100 RRB
MTRAND
METAR KAND 311056Z AUTO 00000KT 10SM CLR 04/02 A3004 RMK AO2 SLP170
T00390017


USA.gov is the U.S. government's official web portal to all federal, state and local government web resources and services.